createdAt,value
2023-03-30T00:01:12.261Z,40.00
2023-03-30T00:03:43.476Z,43.87
2023-03-30T00:06:13.376Z,44.10
2023-03-30T00:08:40.347Z,40.40
2023-03-30T00:11:17.558Z,38.80
2023-03-30T00:13:45.315Z,38.03
2023-03-30T00:16:14.299Z,38.67
2023-03-30T00:18:41.662Z,37.00
2023-03-30T00:21:12.074Z,37.03
2023-03-30T00:23:40.227Z,35.40
2023-03-30T00:26:09.041Z,36.63
2023-03-30T00:28:36.345Z,34.47
2023-03-30T00:31:03.497Z,35.53
2023-03-30T00:33:44.715Z,33.67
2023-03-30T00:36:14.021Z,34.83
2023-03-30T00:38:41.370Z,32.67
2023-03-30T00:41:09.697Z,32.43
2023-03-30T00:44:02.081Z,31.63
2023-03-30T00:46:31.675Z,31.67
2023-03-30T00:49:05.576Z,30.27
2023-03-30T00:51:38.338Z,31.60
2023-03-30T00:54:18.592Z,29.87
2023-03-30T00:56:46.223Z,29.00
2023-03-30T00:59:13.632Z,29.77
2023-03-30T01:01:41.986Z,28.80
2023-03-30T01:04:10.251Z,29.17
2023-03-30T01:06:40.598Z,28.40
2023-03-30T01:09:08.918Z,27.00
2023-03-30T01:11:35.990Z,28.23
2023-03-30T01:14:06.526Z,28.23
2023-03-30T01:16:36.511Z,27.23
2023-03-30T01:19:43.920Z,26.80
2023-03-30T01:22:50.403Z,25.80
2023-03-30T01:25:57.692Z,26.97
2023-03-30T01:28:50.375Z,27.40
2023-03-30T01:31:35.841Z,27.97
2023-03-30T01:34:20.881Z,27.50
2023-03-30T01:37:13.365Z,27.20
2023-03-30T01:39:45.344Z,31.23
2023-03-30T01:42:46.581Z,27.83
2023-03-30T01:45:19.976Z,27.70
2023-03-30T01:48:19.506Z,29.10
2023-03-30T01:50:52.941Z,34.23
2023-03-30T01:53:31.440Z,30.07
2023-03-30T01:56:06.970Z,36.20
2023-03-30T01:58:47.434Z,32.20
2023-03-30T02:01:18.234Z,33.33
2023-03-30T02:03:49.784Z,32.63
2023-03-30T02:06:24.869Z,36.57
2023-03-30T02:08:54.877Z,37.43
2023-03-30T02:11:24.519Z,35.53
2023-03-30T02:13:53.898Z,37.03
2023-03-30T02:16:29.329Z,36.03
2023-03-30T02:18:58.015Z,37.07
2023-03-30T02:21:26.118Z,35.33
2023-03-30T02:23:56.136Z,32.07
2023-03-30T02:26:23.504Z,36.47
2023-03-30T02:28:52.352Z,33.47
2023-03-30T02:31:19.667Z,34.13
2023-03-30T02:34:02.899Z,31.53
2023-03-30T02:36:38.716Z,30.33
2023-03-30T02:39:31.567Z,37.00
2023-03-30T02:42:20.517Z,32.70
2023-03-30T02:45:19.131Z,31.10
2023-03-30T02:48:06.220Z,32.67
2023-03-30T02:50:51.921Z,32.77
2023-03-30T02:53:49.507Z,27.77
2023-03-30T02:56:42.392Z,33.27
2023-03-30T02:59:14.345Z,28.97
2023-03-30T03:02:04.743Z,34.50
2023-03-30T03:04:34.302Z,30.67
2023-03-30T03:07:02.801Z,31.00
2023-03-30T03:09:30.242Z,30.13
2023-03-30T03:11:57.122Z,37.93
2023-03-30T03:14:26.747Z,35.83
2023-03-30T03:16:55.137Z,35.70
2023-03-30T03:19:21.973Z,34.63
2023-03-30T03:21:49.164Z,33.73
2023-03-30T03:24:17.592Z,38.57
2023-03-30T03:26:44.490Z,34.83
2023-03-30T03:29:11.461Z,35.83
2023-03-30T03:31:38.372Z,38.33
2023-03-30T03:34:05.345Z,38.10
2023-03-30T03:36:33.051Z,38.50
2023-03-30T03:38:59.910Z,38.57
2023-03-30T03:41:26.792Z,34.60
2023-03-30T03:43:53.677Z,41.53
2023-03-30T03:46:20.757Z,42.00
2023-03-30T03:48:47.599Z,37.40
2023-03-30T03:51:14.672Z,35.90
2023-03-30T03:53:41.845Z,38.40
2023-03-30T03:56:08.879Z,32.93
2023-03-30T03:58:35.997Z,35.43
2023-03-30T04:01:03.664Z,39.70
2023-03-30T04:03:30.855Z,34.60
2023-03-30T04:06:02.675Z,33.73
2023-03-30T04:08:29.806Z,34.27
2023-03-30T04:10:56.822Z,29.83
2023-03-30T04:13:23.623Z,29.80
2023-03-30T04:15:50.761Z,31.77
2023-03-30T04:18:20.550Z,32.90
2023-03-30T04:20:49.686Z,29.73
2023-03-30T04:23:22.110Z,27.53
2023-03-30T04:25:49.206Z,28.50
2023-03-30T04:28:16.135Z,31.13
2023-03-30T04:30:45.830Z,29.33
2023-03-30T04:33:14.877Z,26.80
2023-03-30T04:35:41.758Z,26.43
2023-03-30T04:38:08.792Z,28.00
2023-03-30T04:40:35.773Z,25.93
2023-03-30T04:43:04.120Z,28.47
2023-03-30T04:45:31.547Z,25.60
2023-03-30T04:48:01.587Z,22.23
2023-03-30T04:50:28.378Z,29.10
2023-03-30T04:52:55.152Z,23.20
2023-03-30T04:55:22.198Z,24.53
2023-03-30T04:57:48.927Z,22.43
2023-03-30T05:00:16.467Z,23.77
2023-03-30T05:02:43.439Z,21.67
2023-03-30T05:05:10.684Z,25.53
2023-03-30T05:07:37.586Z,20.53
2023-03-30T05:10:08.098Z,20.67
2023-03-30T05:12:34.885Z,21.87
2023-03-30T05:15:01.834Z,20.97
2023-03-30T05:17:28.808Z,18.60
2023-03-30T05:19:56.553Z,19.83
2023-03-30T05:22:23.483Z,19.20
2023-03-30T05:24:52.361Z,18.60
2023-03-30T05:27:19.785Z,19.67
2023-03-30T05:29:46.709Z,19.13
2023-03-30T05:32:13.648Z,19.50
2023-03-30T05:34:40.432Z,16.63
2023-03-30T05:37:07.521Z,16.13
2023-03-30T05:39:34.333Z,17.30
2023-03-30T05:42:01.861Z,16.40
2023-03-30T05:44:29.871Z,17.63
2023-03-30T05:46:56.662Z,16.63
2023-03-30T05:49:23.756Z,18.17
2023-03-30T05:51:51.141Z,18.57
2023-03-30T05:54:18.142Z,22.37
2023-03-30T05:56:44.945Z,17.53
2023-03-30T05:59:13.101Z,20.00
2023-03-30T06:01:40.286Z,18.00
2023-03-30T06:04:08.284Z,17.90
2023-03-30T06:06:35.405Z,18.07
2023-03-30T06:09:03.138Z,17.63
2023-03-30T06:11:30.434Z,20.43
2023-03-30T06:13:57.480Z,17.60
2023-03-30T06:16:24.733Z,17.70
2023-03-30T06:18:52.523Z,18.67
2023-03-30T06:21:19.467Z,19.17
2023-03-30T06:23:46.595Z,15.30
2023-03-30T06:26:13.815Z,14.07
2023-03-30T06:28:41.576Z,15.70
2023-03-30T06:31:12.425Z,13.53
2023-03-30T06:33:41.721Z,12.87
2023-03-30T06:36:14.094Z,14.47
2023-03-30T06:38:41.480Z,10.93
2023-03-30T06:41:08.570Z,11.23
2023-03-30T06:43:35.565Z,13.33
2023-03-30T06:46:02.618Z,10.60
2023-03-30T06:48:30.147Z,13.77
2023-03-30T06:50:57.203Z,10.57
2023-03-30T06:53:24.656Z,9.97
2023-03-30T06:55:53.692Z,9.47
2023-03-30T06:58:20.911Z,10.20
2023-03-30T07:00:49.332Z,10.23
2023-03-30T07:03:19.984Z,10.23
2023-03-30T07:05:50.998Z,9.97
2023-03-30T07:08:19.134Z,12.57
2023-03-30T07:10:47.478Z,8.27
2023-03-30T07:13:14.731Z,10.93
2023-03-30T07:15:42.074Z,9.97
2023-03-30T07:18:09.336Z,12.70
2023-03-30T07:20:36.671Z,10.20
2023-03-30T07:23:04.018Z,10.47
2023-03-30T07:25:31.996Z,9.30
2023-03-30T07:27:58.870Z,10.17
2023-03-30T07:30:26.429Z,9.90
2023-03-30T07:32:55.556Z,8.73
2023-03-30T07:35:24.600Z,11.87
2023-03-30T07:37:51.913Z,10.80
2023-03-30T07:40:20.187Z,9.80
2023-03-30T07:42:48.328Z,6.23
2023-03-30T07:45:16.433Z,8.07
2023-03-30T07:47:43.746Z,8.17
2023-03-30T07:50:10.844Z,7.97
2023-03-30T07:52:38.177Z,6.90
2023-03-30T07:55:05.561Z,10.73
2023-03-30T07:57:32.898Z,9.13
2023-03-30T07:59:59.861Z,7.93
2023-03-30T08:02:27.441Z,6.73
2023-03-30T08:04:54.573Z,7.27
2023-03-30T08:07:21.731Z,7.60
2023-03-30T08:09:48.946Z,9.90
2023-03-30T08:12:16.126Z,9.17
2023-03-30T08:14:43.023Z,8.60
2023-03-30T08:17:09.882Z,7.40
2023-03-30T08:19:39.584Z,11.13
2023-03-30T08:22:06.358Z,7.13
2023-03-30T08:24:33.355Z,9.33
2023-03-30T08:27:00.186Z,8.27
2023-03-30T08:29:27.075Z,6.57
2023-03-30T08:31:54.022Z,6.67
2023-03-30T08:34:21.024Z,8.77
2023-03-30T08:36:47.955Z,7.43
2023-03-30T08:39:15.763Z,8.87
2023-03-30T08:42:06.395Z,5.57
2023-03-30T08:44:43.123Z,4.00
2023-03-30T08:47:15.660Z,6.67
2023-03-30T08:50:00.414Z,6.73
2023-03-30T08:52:27.495Z,5.37
2023-03-30T08:54:55.150Z,5.37
2023-03-30T08:57:51.660Z,8.17
2023-03-30T09:00:38.705Z,4.97
2023-03-30T09:03:24.245Z,9.83
2023-03-30T09:06:08.031Z,5.83
2023-03-30T09:08:35.170Z,7.20
2023-03-30T09:11:07.393Z,8.50
2023-03-30T09:13:38.063Z,8.87
2023-03-30T09:16:30.087Z,5.87
2023-03-30T09:18:59.398Z,7.10
2023-03-30T09:21:29.558Z,7.20
2023-03-30T09:23:59.247Z,7.10
2023-03-30T09:26:50.485Z,4.73
2023-03-30T09:29:31.808Z,4.57
2023-03-30T09:32:06.044Z,8.40
2023-03-30T09:35:04.706Z,8.60
2023-03-30T09:37:31.725Z,6.30
2023-03-30T09:39:59.486Z,6.97
2023-03-30T09:42:52.251Z,9.13
2023-03-30T09:45:29.023Z,4.00
2023-03-30T09:47:57.217Z,5.77
2023-03-30T09:50:27.909Z,8.07
2023-03-30T09:53:04.060Z,7.07
2023-03-30T09:55:32.593Z,4.97
2023-03-30T09:58:21.481Z,7.97
2023-03-30T10:01:04.011Z,7.80
2023-03-30T10:03:31.065Z,6.17
2023-03-30T10:06:09.650Z,6.37
2023-03-30T10:08:43.383Z,6.97
2023-03-30T10:11:10.658Z,5.20
2023-03-30T10:13:42.102Z,5.43
2023-03-30T10:16:29.667Z,3.97
2023-03-30T10:19:01.676Z,5.37
2023-03-30T10:21:47.846Z,4.77
2023-03-30T10:24:14.741Z,5.40
2023-03-30T10:26:47.025Z,4.43
2023-03-30T10:29:18.548Z,4.50
2023-03-30T10:31:48.546Z,5.97
2023-03-30T10:34:32.418Z,5.93
2023-03-30T10:36:59.594Z,4.60
2023-03-30T10:39:29.982Z,6.20
2023-03-30T10:42:00.056Z,5.70
2023-03-30T10:44:46.497Z,5.90
2023-03-30T10:47:46.546Z,4.90
2023-03-30T10:50:43.559Z,6.03
2023-03-30T10:53:16.088Z,6.43
2023-03-30T10:56:09.419Z,4.33
2023-03-30T10:59:03.935Z,3.60
2023-03-30T11:01:37.168Z,5.53
2023-03-30T11:04:22.523Z,6.60
2023-03-30T11:06:53.542Z,4.67
2023-03-30T11:09:28.260Z,4.77
2023-03-30T11:12:11.598Z,6.80
2023-03-30T11:15:04.459Z,3.60
2023-03-30T11:17:43.900Z,5.00
2023-03-30T11:20:23.840Z,6.73
2023-03-30T11:23:02.155Z,6.83
2023-03-30T11:25:54.067Z,6.10
2023-03-30T11:28:26.639Z,5.87
2023-03-30T11:31:00.127Z,4.13
2023-03-30T11:33:45.034Z,8.67
2023-03-30T11:36:19.725Z,6.53
2023-03-30T11:38:54.963Z,8.33
2023-03-30T11:41:31.717Z,9.60
2023-03-30T11:43:58.705Z,6.43
2023-03-30T11:46:28.843Z,10.03
2023-03-30T11:48:56.182Z,6.03
2023-03-30T11:51:45.077Z,9.27
2023-03-30T11:55:02.425Z,11.43
2023-03-30T11:57:36.179Z,8.33
2023-03-30T12:00:15.177Z,8.10
2023-03-30T12:03:14.144Z,7.47
2023-03-30T12:05:53.554Z,7.10
2023-03-30T12:08:44.223Z,9.90
2023-03-30T12:11:24.060Z,8.40
2023-03-30T12:13:52.383Z,9.60
2023-03-30T12:16:32.079Z,10.70
2023-03-30T12:19:11.627Z,12.63
2023-03-30T12:21:58.287Z,8.87
2023-03-30T12:24:38.688Z,8.90
2023-03-30T12:27:07.485Z,12.40
2023-03-30T12:30:02.326Z,10.20
2023-03-30T12:32:31.392Z,8.57
2023-03-30T12:34:58.738Z,9.67
2023-03-30T12:37:38.246Z,9.97
2023-03-30T12:40:19.285Z,8.90
2023-03-30T12:43:11.218Z,11.30
2023-03-30T12:46:03.036Z,11.47
2023-03-30T12:49:03.615Z,10.37
2023-03-30T12:51:47.158Z,11.87
2023-03-30T12:54:43.318Z,8.53
2023-03-30T12:57:35.340Z,12.50
2023-03-30T13:00:41.756Z,7.00
2023-03-30T13:03:18.543Z,10.07
2023-03-30T13:05:51.602Z,7.47
2023-03-30T13:08:22.068Z,12.90
2023-03-30T13:10:49.067Z,9.67
2023-03-30T13:13:24.254Z,8.17
2023-03-30T13:15:55.918Z,13.07
2023-03-30T13:18:35.769Z,8.43
2023-03-30T13:21:17.765Z,8.10
2023-03-30T13:23:59.898Z,10.30
2023-03-30T13:26:34.872Z,7.00
2023-03-30T13:29:16.062Z,5.50
2023-03-30T13:32:21.068Z,8.87
2023-03-30T13:35:05.979Z,9.17
2023-03-30T13:38:08.371Z,4.37
2023-03-30T13:41:08.975Z,7.57
2023-03-30T13:43:54.233Z,5.13
2023-03-30T13:46:27.504Z,6.20
2023-03-30T13:49:25.132Z,5.30
2023-03-30T13:51:53.251Z,4.17
2023-03-30T13:54:29.283Z,4.63
2023-03-30T13:57:05.030Z,11.73
2023-03-30T13:59:36.446Z,6.73
2023-03-30T14:02:05.479Z,5.30
2023-03-30T14:04:37.375Z,4.57
2023-03-30T14:07:16.287Z,5.47
2023-03-30T14:09:45.423Z,5.47
2023-03-30T14:12:14.147Z,18.00
2023-03-30T14:14:47.243Z,18.73
2023-03-30T14:17:23.919Z,11.53
2023-03-30T14:20:21.219Z,14.10
2023-03-30T14:22:50.534Z,10.20
2023-03-30T14:25:27.417Z,7.50
2023-03-30T14:27:57.284Z,8.30
2023-03-30T14:30:29.709Z,7.57
2023-03-30T14:33:13.330Z,9.97
2023-03-30T14:35:47.111Z,9.23
2023-03-30T14:38:22.325Z,8.40
2023-03-30T14:40:51.937Z,9.63
2023-03-30T14:43:24.777Z,9.77
2023-03-30T14:45:57.452Z,6.80
2023-03-30T14:48:36.915Z,12.23
2023-03-30T14:51:09.923Z,8.40
2023-03-30T14:53:37.105Z,10.87
2023-03-30T14:56:05.295Z,8.80
2023-03-30T14:58:33.572Z,10.70
2023-03-30T15:01:09.180Z,11.53
2023-03-30T15:03:38.196Z,13.87
2023-03-30T15:06:07.470Z,8.30
2023-03-30T15:08:38.992Z,10.03
2023-03-30T15:11:24.509Z,11.67
2023-03-30T15:13:58.083Z,10.40
2023-03-30T15:16:30.312Z,8.50
2023-03-30T15:19:05.425Z,13.40
2023-03-30T15:21:36.384Z,9.73
2023-03-30T15:24:07.389Z,10.50
2023-03-30T15:26:34.848Z,11.47
2023-03-30T15:29:04.611Z,9.83
2023-03-30T15:31:32.024Z,10.37
2023-03-30T15:34:02.283Z,9.80
2023-03-30T15:36:39.649Z,10.73
2023-03-30T15:39:34.305Z,9.23
2023-03-30T15:42:08.098Z,9.67
2023-03-30T15:44:43.227Z,9.07
2023-03-30T15:47:28.593Z,13.03
2023-03-30T15:49:56.280Z,13.13
2023-03-30T15:52:35.048Z,13.33
2023-03-30T15:55:09.181Z,12.63
2023-03-30T15:57:37.864Z,14.00
2023-03-30T16:00:19.889Z,13.37
2023-03-30T16:02:57.977Z,13.83
2023-03-30T16:05:32.126Z,14.37
2023-03-30T16:07:59.499Z,12.07
2023-03-30T16:10:29.206Z,12.43
2023-03-30T16:12:58.383Z,13.13
2023-03-30T16:15:28.350Z,9.47
2023-03-30T16:17:55.714Z,11.90
2023-03-30T16:20:24.213Z,10.50
2023-03-30T16:22:51.626Z,11.43
2023-03-30T16:25:23.220Z,14.17
2023-03-30T16:27:55.755Z,11.73
2023-03-30T16:30:38.713Z,13.97
2023-03-30T16:33:06.029Z,18.00
2023-03-30T16:35:35.747Z,12.77
2023-03-30T16:38:02.623Z,15.47
2023-03-30T16:40:55.242Z,11.67
2023-03-30T16:43:22.466Z,11.83
2023-03-30T16:45:49.617Z,15.73
2023-03-30T16:48:17.234Z,15.40
2023-03-30T16:50:53.461Z,17.33
2023-03-30T16:53:20.911Z,13.07
2023-03-30T16:55:49.252Z,15.17
2023-03-30T16:58:16.639Z,15.67
2023-03-30T17:00:46.632Z,12.57
2023-03-30T17:03:14.406Z,15.50
2023-03-30T17:05:42.699Z,14.97
2023-03-30T17:08:23.122Z,12.63
2023-03-30T17:10:51.645Z,13.83
2023-03-30T17:13:18.919Z,16.60
2023-03-30T17:15:45.909Z,16.73
2023-03-30T17:18:15.318Z,16.80
2023-03-30T17:20:44.973Z,16.10
2023-03-30T17:23:11.879Z,13.83
2023-03-30T17:25:40.052Z,14.40
2023-03-30T17:28:10.404Z,16.77
2023-03-30T17:30:40.940Z,21.63
2023-03-30T17:33:13.026Z,13.23
2023-03-30T17:35:41.146Z,17.27
2023-03-30T17:38:09.442Z,22.00
2023-03-30T17:40:39.057Z,19.23
2023-03-30T17:43:07.599Z,17.40
2023-03-30T17:45:35.732Z,38.37
2023-03-30T17:48:03.936Z,45.60
2023-03-30T17:50:34.036Z,27.73
2023-03-30T17:53:01.350Z,37.30
2023-03-30T17:55:31.096Z,36.67
2023-03-30T17:57:58.088Z,30.57
2023-03-30T18:00:24.947Z,22.47
2023-03-30T18:02:52.839Z,21.47
2023-03-30T18:05:21.657Z,15.93
2023-03-30T18:07:49.073Z,15.17
2023-03-30T18:10:24.788Z,20.13
2023-03-30T18:12:52.581Z,21.83
2023-03-30T18:15:25.390Z,28.27
2023-03-30T18:17:52.919Z,15.87
2023-03-30T18:20:21.493Z,19.13
2023-03-30T18:22:51.063Z,17.53
2023-03-30T18:25:29.735Z,22.10
2023-03-30T18:27:59.634Z,18.13
2023-03-30T18:30:41.037Z,17.03
2023-03-30T18:33:08.379Z,23.17
2023-03-30T18:35:36.807Z,21.50
2023-03-30T18:38:05.275Z,20.37
2023-03-30T18:40:35.290Z,20.00
2023-03-30T18:43:02.283Z,24.77
2023-03-30T18:45:48.750Z,37.67
2023-03-30T18:48:17.928Z,44.00
2023-03-30T18:50:47.136Z,28.07
2023-03-30T18:53:26.001Z,17.93
2023-03-30T18:55:57.513Z,19.17
2023-03-30T18:58:27.599Z,20.80
2023-03-30T19:00:55.364Z,20.03
2023-03-30T19:03:25.465Z,16.87
2023-03-30T19:05:52.852Z,17.67
2023-03-30T19:08:22.045Z,21.90
2023-03-30T19:10:51.333Z,19.53
2023-03-30T19:13:20.149Z,20.17
2023-03-30T19:15:47.955Z,20.13
2023-03-30T19:18:16.240Z,17.47
2023-03-30T19:20:43.994Z,16.73
2023-03-30T19:23:14.020Z,21.63
2023-03-30T19:25:41.910Z,19.90
2023-03-30T19:28:09.611Z,28.07
2023-03-30T19:30:39.558Z,27.17
2023-03-30T19:33:10.442Z,23.17
2023-03-30T19:35:40.172Z,21.77
2023-03-30T19:38:06.920Z,22.17
2023-03-30T19:40:33.836Z,27.27
2023-03-30T19:43:03.316Z,22.20
2023-03-30T19:45:31.947Z,17.77
2023-03-30T19:47:59.205Z,26.63
2023-03-30T19:50:27.982Z,22.70
2023-03-30T19:52:56.612Z,23.00
2023-03-30T19:55:23.563Z,20.63
2023-03-30T19:57:50.443Z,21.37
2023-03-30T20:00:19.212Z,21.87
2023-03-30T20:02:49.924Z,25.07
2023-03-30T20:05:18.214Z,24.90
2023-03-30T20:07:45.669Z,21.73
2023-03-30T20:10:24.752Z,20.17
2023-03-30T20:12:52.655Z,22.33
2023-03-30T20:15:21.205Z,21.27
2023-03-30T20:17:48.387Z,23.83
2023-03-30T20:20:22.962Z,22.07
2023-03-30T20:22:53.659Z,19.17
2023-03-30T20:25:21.965Z,21.23
2023-03-30T20:27:49.697Z,22.40
2023-03-30T20:30:18.155Z,18.70
2023-03-30T20:32:53.039Z,17.80
2023-03-30T20:35:27.583Z,19.77
2023-03-30T20:37:55.639Z,20.93
2023-03-30T20:40:23.303Z,22.73
2023-03-30T20:42:50.333Z,23.63
2023-03-30T20:45:17.875Z,23.13
2023-03-30T20:47:50.321Z,21.73
2023-03-30T20:50:17.266Z,20.63
2023-03-30T20:52:44.190Z,24.73
2023-03-30T20:55:11.176Z,26.57
2023-03-30T20:57:38.953Z,22.80
2023-03-30T21:00:09.735Z,26.97
2023-03-30T21:02:36.542Z,25.53
2023-03-30T21:05:04.205Z,24.73
2023-03-30T21:07:32.356Z,31.83
2023-03-30T21:09:59.226Z,28.30
2023-03-30T21:12:26.525Z,34.13
2023-03-30T21:14:53.736Z,25.83
2023-03-30T21:17:20.640Z,25.77
2023-03-30T21:19:47.421Z,28.47
2023-03-30T21:22:14.262Z,24.13
2023-03-30T21:24:40.966Z,33.60
2023-03-30T21:27:08.079Z,27.70
2023-03-30T21:29:34.911Z,31.30
2023-03-30T21:32:01.822Z,24.53
2023-03-30T21:34:28.793Z,29.63
2023-03-30T21:36:55.768Z,33.33
2023-03-30T21:39:24.078Z,25.57
2023-03-30T21:41:51.170Z,31.23
2023-03-30T21:44:18.012Z,25.33
2023-03-30T21:46:44.999Z,28.47
2023-03-30T21:49:12.872Z,27.67
2023-03-30T21:51:39.769Z,24.73
2023-03-30T21:54:07.984Z,23.37
2023-03-30T21:56:34.838Z,21.90
2023-03-30T21:59:01.840Z,23.07
2023-03-30T22:01:29.028Z,20.27
2023-03-30T22:03:56.180Z,24.17
2023-03-30T22:06:23.841Z,24.63
2023-03-30T22:08:51.036Z,23.20
2023-03-30T22:11:26.271Z,26.03
2023-03-30T22:13:55.489Z,21.07
2023-03-30T22:16:28.480Z,25.00
2023-03-30T22:18:55.895Z,27.17
2023-03-30T22:21:25.980Z,27.17
2023-03-30T22:23:53.100Z,29.10
2023-03-30T22:26:20.125Z,27.83
2023-03-30T22:28:46.992Z,28.77
2023-03-30T22:31:15.573Z,28.73
2023-03-30T22:33:42.619Z,30.47
2023-03-30T22:36:19.877Z,28.73
2023-03-30T22:38:48.545Z,35.20
2023-03-30T22:41:15.761Z,31.67
2023-03-30T22:43:42.800Z,28.07
2023-03-30T22:46:10.358Z,33.20
2023-03-30T22:48:37.967Z,32.17
2023-03-30T22:51:08.560Z,31.93
2023-03-30T22:53:35.907Z,31.03
2023-03-30T22:56:03.055Z,33.17
2023-03-30T22:58:30.107Z,31.00
2023-03-30T23:01:07.267Z,30.83
2023-03-30T23:03:34.491Z,35.23
2023-03-30T23:06:01.961Z,33.43
2023-03-30T23:08:32.405Z,31.97
2023-03-30T23:11:05.210Z,31.47
2023-03-30T23:13:37.798Z,27.53
2023-03-30T23:16:08.986Z,29.37
2023-03-30T23:18:36.581Z,21.80
2023-03-30T23:21:06.688Z,26.70
2023-03-30T23:23:37.649Z,25.00
2023-03-30T23:26:10.651Z,26.27
2023-03-30T23:28:39.976Z,29.83
2023-03-30T23:31:18.223Z,26.53
2023-03-30T23:33:45.658Z,31.00
2023-03-30T23:36:13.952Z,29.50
2023-03-30T23:38:41.601Z,29.27
2023-03-30T23:41:09.093Z,19.73
2023-03-30T23:43:36.135Z,33.07
2023-03-30T23:46:03.913Z,35.40
2023-03-30T23:48:31.069Z,29.20
2023-03-30T23:50:58.276Z,32.93
2023-03-30T23:53:26.890Z,39.17
2023-03-30T23:55:55.548Z,40.53
2023-03-30T23:58:22.729Z,33.83
